TimeEST,TemperatureF,Dew PointF,Humidity,Sea Level PressureIn,VisibilityMPH,Wind Direction,Wind SpeedMPH,Gust SpeedMPH,PrecipitationIn,Events,Conditions,WindDirDegrees,DateUTC
12:15 AM,34.3,27.1,75,30.20,10.0,North,10.4,-,N/A,,Overcast,360,2013-02-09 05:15:00
12:35 AM,34.0,26.8,75,30.19,10.0,NNW,5.8,16.1,N/A,,Overcast,340,2013-02-09 05:35:00
12:55 AM,34.0,25.7,72,30.19,10.0,North,5.8,20.7,N/A,,Overcast,10,2013-02-09 05:55:00
1:15 AM,33.8,25.9,73,30.20,10.0,NNW,10.4,17.3,N/A,,Overcast,340,2013-02-09 06:15:00
1:35 AM,33.4,25.7,73,30.20,10.0,North,3.5,-,N/A,,Overcast,360,2013-02-09 06:35:00
1:55 AM,33.4,25.7,73,30.20,10.0,WNW,4.6,-,N/A,,Mostly Cloudy,300,2013-02-09 06:55:00
2:15 AM,33.3,25.7,74,30.20,10.0,NW,3.5,-,N/A,,Overcast,310,2013-02-09 07:15:00
2:35 AM,33.3,25.5,73,30.20,10.0,Calm,Calm,-,N/A,,Mostly Cloudy,0,2013-02-09 07:35:00
2:55 AM,32.9,25.5,74,30.20,10.0,Calm,Calm,-,N/A,,Overcast,0,2013-02-09 07:55:00
3:15 AM,32.9,24.8,72,30.21,10.0,Calm,Calm,-,N/A,,Overcast,0,2013-02-09 08:15:00
3:35 AM,32.5,24.3,72,30.21,10.0,NNW,4.6,-,N/A,,Overcast,330,2013-02-09 08:35:00
3:55 AM,32.0,24.4,74,30.21,10.0,NNW,5.8,-,N/A,,Mostly Cloudy,340,2013-02-09 08:55:00
4:15 AM,32.2,24.6,74,30.21,10.0,NNW,9.2,-,N/A,,Scattered Clouds,340,2013-02-09 09:15:00
4:35 AM,32.0,24.6,74,30.22,10.0,NNW,4.6,-,N/A,,Scattered Clouds,330,2013-02-09 09:35:00
4:55 AM,31.6,24.6,75,30.22,10.0,Calm,Calm,-,N/A,,Clear,0,2013-02-09 09:55:00
5:15 AM,31.3,24.8,77,30.23,10.0,WNW,3.5,-,N/A,,Clear,300,2013-02-09 10:15:00
5:35 AM,31.8,24.8,75,30.23,10.0,North,8.1,-,N/A,,Clear,350,2013-02-09 10:35:00
5:55 AM,31.3,24.1,75,30.24,10.0,NNW,8.1,-,N/A,,Clear,340,2013-02-09 10:55:00
6:15 AM,31.1,23.9,75,30.24,10.0,NW,5.8,-,N/A,,Clear,320,2013-02-09 11:15:00
6:35 AM,30.9,23.7,75,30.25,10.0,WNW,3.5,-,N/A,,Clear,300,2013-02-09 11:35:00
6:55 AM,30.7,23.9,76,30.25,10.0,NNW,9.2,-,N/A,,Clear,330,2013-02-09 11:55:00
7:15 AM,30.2,23.7,77,30.26,10.0,NW,5.8,-,N/A,,Clear,320,2013-02-09 12:15:00
7:35 AM,29.8,23.5,77,30.27,10.0,NW,3.5,-,N/A,,Clear,310,2013-02-09 12:35:00
7:55 AM,30.2,23.0,75,30.27,10.0,West,4.6,-,N/A,,Clear,270,2013-02-09 12:55:00
8:15 AM,30.2,23.0,75,30.28,10.0,NNW,3.5,-,N/A,,Clear,330,2013-02-09 13:15:00
8:35 AM,30.9,23.4,74,30.30,10.0,NNW,4.6,-,N/A,,Clear,330,2013-02-09 13:35:00
8:55 AM,31.6,23.7,73,30.30,10.0,NW,6.9,-,N/A,,Clear,320,2013-02-09 13:55:00
9:15 AM,32.0,23.4,70,30.30,10.0,NNW,6.9,-,N/A,,Clear,340,2013-02-09 14:15:00
9:35 AM,32.0,23.2,70,30.30,10.0,NW,8.1,-,N/A,,Clear,320,2013-02-09 14:35:00
9:55 AM,32.9,23.2,67,30.31,10.0,NNW,4.6,-,N/A,,Clear,330,2013-02-09 14:55:00
10:15 AM,33.8,23.0,65,30.30,10.0,Calm,Calm,-,N/A,,Clear,0,2013-02-09 15:15:00
10:35 AM,34.9,23.5,63,30.31,10.0,WNW,3.5,-,N/A,,Clear,300,2013-02-09 15:35:00
10:55 AM,36.5,23.9,60,30.31,10.0,SSW,4.6,-,N/A,,Clear,210,2013-02-09 15:55:00
11:15 AM,37.0,23.0,57,30.31,10.0,NW,4.6,-,N/A,,Clear,320,2013-02-09 16:15:00
11:35 AM,38.7,22.5,52,30.32,10.0,SSW,4.6,-,N/A,,Clear,210,2013-02-09 16:35:00
11:55 AM,39.2,21.9,50,30.30,10.0,West,5.8,-,N/A,,Clear,260,2013-02-09 16:55:00
12:15 PM,40.3,21.7,48,30.30,10.0,West,3.5,-,N/A,,Clear,270,2013-02-09 17:15:00
12:35 PM,42.8,22.5,45,30.29,10.0,SW,5.8,-,N/A,,Clear,220,2013-02-09 17:35:00
12:55 PM,42.6,22.1,44,30.28,10.0,WNW,5.8,-,N/A,,Clear,290,2013-02-09 17:55:00
1:15 PM,42.8,19.8,40,30.28,10.0,Calm,Calm,-,N/A,,Clear,0,2013-02-09 18:15:00
1:35 PM,44.8,22.5,41,30.28,10.0,SW,5.8,-,N/A,,Clear,220,2013-02-09 18:35:00
1:55 PM,45.9,21.7,38,30.27,10.0,SW,6.9,-,N/A,,Clear,220,2013-02-09 18:55:00
2:15 PM,46.0,21.2,37,30.27,10.0,SSW,3.5,-,N/A,,Clear,200,2013-02-09 19:15:00
2:35 PM,47.1,20.7,35,30.27,10.0,SSW,3.5,-,N/A,,Clear,210,2013-02-09 19:35:00
2:55 PM,47.7,21.6,36,30.27,10.0,SW,6.9,-,N/A,,Clear,230,2013-02-09 19:55:00
3:15 PM,47.5,20.1,34,30.27,10.0,Calm,Calm,-,N/A,,Clear,0,2013-02-09 20:15:00
3:35 PM,48.2,19.8,32,30.26,10.0,Calm,Calm,-,N/A,,Clear,0,2013-02-09 20:35:00
3:55 PM,49.1,21.4,34,30.26,10.0,SSW,3.5,-,N/A,,Clear,200,2013-02-09 20:55:00
4:15 PM,48.6,19.6,32,30.26,10.0,Calm,Calm,-,N/A,,Clear,0,2013-02-09 21:15:00
4:35 PM,48.6,19.2,31,30.26,10.0,Calm,Calm,-,N/A,,Clear,0,2013-02-09 21:35:00
4:55 PM,48.9,19.6,31,30.26,10.0,East,3.5,-,N/A,,Clear,90,2013-02-09 21:55:00
5:15 PM,48.4,19.0,31,30.26,10.0,Calm,Calm,-,N/A,,Clear,0,2013-02-09 22:15:00
5:35 PM,48.2,18.7,31,30.26,10.0,Calm,Calm,-,N/A,,Clear,0,2013-02-09 22:35:00
5:55 PM,47.1,19.2,33,30.26,10.0,Calm,Calm,-,N/A,,Clear,0,2013-02-09 22:55:00
6:15 PM,45.3,19.4,36,30.26,10.0,Calm,Calm,-,N/A,,Clear,0,2013-02-09 23:15:00
6:35 PM,41.9,22.3,46,30.26,10.0,Calm,Calm,-,N/A,,Clear,0,2013-02-09 23:35:00
6:55 PM,39.4,23.9,54,30.27,10.0,Calm,Calm,-,N/A,,Clear,0,2013-02-09 23:55:00
7:15 PM,39.2,21.7,50,30.27,10.0,ENE,3.5,-,N/A,,Clear,70,2013-02-10 00:15:00
7:35 PM,38.3,21.7,51,30.27,10.0,Calm,Calm,-,N/A,,Clear,0,2013-02-10 00:35:00
7:55 PM,37.0,22.5,56,30.28,10.0,Calm,Calm,-,N/A,,Clear,0,2013-02-10 00:55:00
8:15 PM,37.0,22.1,55,30.27,10.0,Calm,Calm,-,N/A,,Clear,0,2013-02-10 01:15:00
8:35 PM,36.1,22.8,58,30.27,10.0,Calm,Calm,-,N/A,,Clear,0,2013-02-10 01:35:00
8:55 PM,36.0,22.1,57,30.27,10.0,East,8.1,-,N/A,,Clear,90,2013-02-10 01:55:00
9:15 PM,37.6,22.6,55,30.27,10.0,East,8.1,-,N/A,,Clear,90,2013-02-10 02:15:00
9:35 PM,37.9,22.6,54,30.27,10.0,East,8.1,-,N/A,,Clear,90,2013-02-10 02:35:00
9:55 PM,37.9,22.6,54,30.26,10.0,East,9.2,-,N/A,,Clear,90,2013-02-10 02:55:00
10:15 PM,37.6,22.1,54,30.26,10.0,East,8.1,-,N/A,,Clear,90,2013-02-10 03:15:00
10:35 PM,36.9,22.3,56,30.26,10.0,East,6.9,-,N/A,,Clear,90,2013-02-10 03:35:00
10:55 PM,34.9,22.3,60,30.25,10.0,East,5.8,-,N/A,,Clear,80,2013-02-10 03:55:00
11:15 PM,34.9,22.8,61,30.25,10.0,East,5.8,-,N/A,,Clear,90,2013-02-10 04:15:00
11:35 PM,34.7,22.5,61,30.25,10.0,East,5.8,-,N/A,,Clear,90,2013-02-10 04:35:00
11:55 PM,34.9,22.6,61,30.25,10.0,East,6.9,-,N/A,,Clear,90,2013-02-10 04:55:00